Time;durP1;ratioP1;P1;durP2;ratioP2;P2;SDS_P1;SDS_P2;PMS_P1;PMS_P2;Temp;Humidity;BMP_temperature;BMP_pressure;BME280_temperature;BME280_humidity;BME280_pressure;Samples;Min_cycle;Max_cycle;Signal;HPM_P1;HPM_P2
2024/01/24 00:04:45;;;;;;;12.50;7.80;;;;;;;0.48;100.00;100011.39;433688;1260;139948;-63
2024/01/24 00:14:50;;;;;;;12.90;5.40;;;;;;;0.45;100.00;99995.78;433289;1257;140094;-62
2024/01/24 00:24:56;;;;;;;19.00;8.90;;;;;;;0.38;100.00;99979.33;433086;1258;139577;-63
2024/01/24 00:35:02;;;;;;;10.90;6.70;;;;;;;0.35;100.00;99972.48;432920;1260;139936;-63
2024/01/24 00:45:09;;;;;;;14.80;6.40;;;;;;;0.39;100.00;99962.10;433538;1258;139606;-63
2024/01/24 00:55:15;;;;;;;12.80;7.50;;;;;;;0.53;100.00;99954.65;434608;1255;141022;-63
2024/01/24 01:05:21;;;;;;;10.30;5.50;;;;;;;0.70;100.00;99917.30;433340;1258;139801;-61
2024/01/24 01:15:27;;;;;;;9.40;5.30;;;;;;;0.85;100.00;99859.80;434712;1257;140066;-63
2024/01/24 01:25:33;;;;;;;14.90;5.90;;;;;;;0.86;100.00;99833.23;433528;1257;140419;-63
2024/01/24 01:35:39;;;;;;;10.70;5.80;;;;;;;0.83;100.00;99806.75;432728;1260;140561;-62
2024/01/24 01:45:43;;;;;;;;;;;;;;;0.71;100.00;99810.44;437014;1256;140221;-62
2024/01/24 01:55:50;;;;;;;8.70;4.70;;;;;;;0.52;100.00;99785.83;432891;1260;127329;-62
2024/01/24 02:05:56;;;;;;;11.80;6.40;;;;;;;0.31;100.00;99756.77;432830;1258;140227;-62
2024/01/24 02:16:03;;;;;;;10.30;4.40;;;;;;;0.21;100.00;99736.82;433380;1259;140061;-63
2024/01/24 02:26:10;;;;;;;12.30;6.40;;;;;;;0.20;100.00;99692.41;433443;1256;327893;-62
2024/01/24 02:36:15;;;;;;;;;;;;;;;0.30;100.00;99677.56;433392;1258;140033;-62
2024/01/24 02:46:21;;;;;;;6.10;3.70;;;;;;;0.41;100.00;99642.22;436096;1255;130787;-62
2024/01/24 02:56:27;;;;;;;10.00;5.50;;;;;;;0.48;100.00;99581.10;433302;1256;140996;-64
2024/01/24 03:06:33;;;;;;;8.10;4.90;;;;;;;0.58;100.00;99552.27;432606;1256;139997;-61
2024/01/24 03:16:39;;;;;;;10.90;4.50;;;;;;;0.70;100.00;99508.06;432740;1256;141338;-62
2024/01/24 03:26:45;;;;;;;11.70;4.90;;;;;;;0.71;100.00;99493.56;433251;1256;140122;-61
2024/01/24 03:36:51;;;;;;;6.80;3.60;;;;;;;0.74;100.00;99476.08;433019;1256;139746;-63
2024/01/24 03:46:56;;;;;;;9.90;4.20;;;;;;;0.91;100.00;99447.55;432485;1258;139434;-62
2024/01/24 03:57:02;;;;;;;6.20;4.20;;;;;;;1.07;100.00;99437.30;432687;1258;139921;-62
2024/01/24 04:07:08;;;;;;;7.80;4.00;;;;;;;1.17;100.00;99403.91;432833;1255;139455;-62
2024/01/24 04:17:14;;;;;;;9.20;3.60;;;;;;;1.28;100.00;99373.79;432535;1257;139399;-62
2024/01/24 04:27:20;;;;;;;11.10;4.50;;;;;;;1.36;100.00;99361.65;433349;1257;141497;-61
2024/01/24 04:37:26;;;;;;;8.10;3.30;;;;;;;1.45;100.00;99341.03;436369;1256;140006;-62
2024/01/24 04:47:32;;;;;;;5.90;3.90;;;;;;;1.55;100.00;99308.27;432885;1256;140687;-62
2024/01/24 04:57:38;;;;;;;9.90;4.70;;;;;;;1.65;100.00;99281.73;432975;1256;139864;-63
2024/01/24 05:07:44;;;;;;;7.20;2.80;;;;;;;1.71;100.00;99265.65;433014;1258;139786;-63
2024/01/24 05:17:49;;;;;;;7.30;3.70;;;;;;;1.74;100.00;99250.03;433096;1256;140492;-62
2024/01/24 05:27:55;;;;;;;8.80;4.50;;;;;;;1.73;100.00;99206.44;433332;1258;143337;-62
2024/01/24 05:38:01;;;;;;;5.50;3.50;;;;;;;1.63;100.00;99175.66;433056;1256;139473;-62
2024/01/24 05:48:09;;;;;;;7.00;3.30;;;;;;;1.54;100.00;99134.59;433040;1256;139628;-62
2024/01/24 05:58:15;;;;;;;7.30;3.30;;;;;;;1.39;100.00;99081.77;437181;1255;139883;-62
2024/01/24 06:08:21;;;;;;;4.80;3.80;;;;;;;1.29;100.00;99065.73;433865;1260;139629;-62
2024/01/24 06:18:26;;;;;;;12.20;4.70;;;;;;;1.27;100.00;99053.39;433350;1260;139788;-61
2024/01/24 06:28:32;;;;;;;7.00;4.10;;;;;;;1.28;100.00;99025.79;433046;1260;140195;-62
2024/01/24 06:38:38;;;;;;;8.00;3.80;;;;;;;1.30;100.00;99003.83;433673;1259;139638;-62
2024/01/24 06:48:44;;;;;;;9.10;3.80;;;;;;;1.35;100.00;98962.08;433675;1260;139843;-62
2024/01/24 06:58:50;;;;;;;7.30;5.00;;;;;;;1.40;100.00;98910.15;433873;1260;140180;-63
2024/01/24 07:08:56;;;;;;;5.60;4.30;;;;;;;1.45;100.00;98892.34;433360;1258;139706;-60
2024/01/24 07:19:02;;;;;;;6.60;3.50;;;;;;;1.52;100.00;98884.34;433078;1257;139569;-67
2024/01/24 07:29:09;;;;;;;5.10;4.30;;;;;;;1.63;100.00;98852.35;433099;1260;139458;-68
2024/01/24 07:39:15;;;;;;;4.30;3.60;;;;;;;1.74;100.00;98818.11;433268;1256;139576;-69
2024/01/24 07:49:21;;;;;;;5.50;4.00;;;;;;;1.83;100.00;98785.11;432844;1256;140202;-65
2024/01/24 07:59:27;;;;;;;3.60;3.30;;;;;;;1.94;100.00;98766.52;433031;1259;140319;-68
2024/01/24 08:09:34;;;;;;;4.50;4.00;;;;;;;2.05;100.00;98755.05;433120;1259;141143;-66
2024/01/24 08:19:40;;;;;;;3.50;2.80;;;;;;;2.12;100.00;98723.99;432894;1256;139302;-69
2024/01/24 08:29:45;;;;;;;;;;;;;;;2.20;100.00;98715.88;432910;1256;139546;-65
2024/01/24 08:39:51;;;;;;;4.60;3.20;;;;;;;2.34;100.00;98698.21;438576;1256;125997;-68
2024/01/24 08:49:57;;;;;;;4.30;3.40;;;;;;;2.48;100.00;98681.36;433456;1259;139805;-60
2024/01/24 09:00:04;;;;;;;3.20;2.50;;;;;;;2.60;100.00;98677.13;440658;1256;140241;-72
2024/01/24 09:10:11;;;;;;;2.40;2.10;;;;;;;2.69;100.00;98672.63;435001;1256;140041;-69
2024/01/24 09:20:17;;;;;;;2.50;2.20;;;;;;;2.80;100.00;98656.20;439292;1256;141198;-68
2024/01/24 09:30:23;;;;;;;2.70;2.30;;;;;;;2.99;100.00;98654.95;433372;1256;139544;-67
2024/01/24 09:40:30;;;;;;;4.50;2.70;;;;;;;3.14;100.00;98644.20;433184;1258;139947;-79
2024/01/24 09:50:36;;;;;;;2.50;2.20;;;;;;;3.33;100.00;98620.31;439615;1258;141673;-68
2024/01/24 10:00:44;;;;;;;5.20;3.10;;;;;;;3.51;100.00;98607.30;436135;1256;139709;-62
2024/01/24 10:10:50;;;;;;;3.80;3.40;;;;;;;3.65;100.00;98582.33;435589;1260;140070;-66
2024/01/24 10:20:56;;;;;;;5.30;4.10;;;;;;;3.94;100.00;98567.03;433031;1256;140184;-58
2024/01/24 10:31:04;;;;;;;6.10;5.50;;;;;;;4.13;100.00;98557.50;432754;1258;140084;-57
2024/01/24 10:41:15;;;;;;;5.10;4.60;;;;;;;4.28;100.00;98555.18;433275;1258;140554;-58
2024/01/24 10:51:20;;;;;;;6.70;4.10;;;;;;;4.43;100.00;98545.16;433221;1260;139634;-57
2024/01/24 11:01:26;;;;;;;6.20;4.30;;;;;;;4.57;100.00;98543.66;433009;1257;140934;-57
2024/01/24 11:11:35;;;;;;;7.80;4.60;;;;;;;4.75;100.00;98550.80;433463;1256;140366;-58
2024/01/24 11:21:41;;;;;;;4.40;3.70;;;;;;;4.92;100.00;98538.97;435017;1260;139273;-58
2024/01/24 11:31:47;;;;;;;6.10;4.60;;;;;;;5.22;100.00;98526.11;432949;1260;141793;-58
2024/01/24 11:41:54;;;;;;;4.60;4.00;;;;;;;5.48;100.00;98533.61;432700;1261;140137;-58
2024/01/24 11:52:04;;;;;;;5.50;3.90;;;;;;;5.97;100.00;98524.98;435968;1255;139711;-57
2024/01/24 12:02:10;;;;;;;4.20;3.70;;;;;;;6.25;100.00;98515.07;434986;1257;139960;-56
2024/01/24 12:12:16;;;;;;;5.40;3.90;;;;;;;6.49;100.00;98507.77;435320;1257;139554;-57
2024/01/24 12:22:22;;;;;;;5.10;3.90;;;;;;;7.05;100.00;98482.42;433751;1261;139552;-59
2024/01/24 12:32:28;;;;;;;4.90;3.30;;;;;;;7.40;100.00;98476.59;433400;1260;139417;-58
2024/01/24 12:42:35;;;;;;;5.00;2.90;;;;;;;7.45;100.00;98485.80;432935;1257;139408;-59
2024/01/24 12:52:41;;;;;;;3.20;1.40;;;;;;;7.28;100.00;98488.90;433349;1256;140426;-58
2024/01/24 13:02:48;;;;;;;3.90;1.60;;;;;;;7.26;100.00;98520.20;433197;1259;139332;-57
2024/01/24 13:12:54;;;;;;;1.80;1.30;;;;;;;7.15;100.00;98540.92;433308;1259;140371;-57
2024/01/24 13:23:00;;;;;;;3.30;1.90;;;;;;;7.05;100.00;98537.77;433401;1256;140508;-58
2024/01/24 13:33:06;;;;;;;2.50;2.00;;;;;;;6.96;100.00;98526.31;433626;1256;139894;-57
2024/01/24 13:43:13;;;;;;;3.70;1.40;;;;;;;6.93;100.00;98536.45;432882;1261;139592;-59
2024/01/24 13:53:18;;;;;;;3.30;1.60;;;;;;;6.88;100.00;98526.85;432894;1260;140039;-59
2024/01/24 14:03:24;;;;;;;6.70;2.90;;;;;;;6.84;100.00;98531.66;433116;1260;139269;-58
2024/01/24 14:13:30;;;;;;;4.00;1.90;;;;;;;6.74;100.00;98543.93;432847;1256;139546;-58
2024/01/24 14:23:36;;;;;;;9.50;4.00;;;;;;;6.76;100.00;98549.39;433406;1256;175796;-64
2024/01/24 14:33:42;;;;;;;11.30;3.40;;;;;;;6.78;100.00;98554.63;437284;1259;139436;-61
2024/01/24 14:43:48;;;;;;;8.70;3.10;;;;;;;6.77;100.00;98559.80;432839;1259;140158;-61
2024/01/24 14:53:54;;;;;;;7.30;2.90;;;;;;;6.65;100.00;98570.61;432815;1259;139908;-62
2024/01/24 15:04:00;;;;;;;9.00;2.90;;;;;;;6.58;100.00;98567.70;433181;1261;139069;-64
2024/01/24 15:14:06;;;;;;;7.90;3.20;;;;;;;6.54;100.00;98580.83;432753;1257;139449;-64
2024/01/24 15:24:12;;;;;;;5.30;3.40;;;;;;;6.50;100.00;98599.55;432728;1257;140454;-64
2024/01/24 15:34:19;;;;;;;10.90;3.80;;;;;;;6.40;100.00;98611.98;432654;1261;139540;-68
2024/01/24 15:44:26;;;;;;;13.70;5.10;;;;;;;6.26;100.00;98613.92;435544;1255;139784;-72
2024/01/24 15:54:32;;;;;;;9.80;2.70;;;;;;;6.19;100.00;98610.14;438008;1259;140654;-71
2024/01/24 16:04:38;;;;;;;7.60;3.40;;;;;;;6.06;100.00;98605.02;440193;1260;139585;-72
2024/01/24 16:14:44;;;;;;;8.30;3.10;;;;;;;5.98;100.00;98604.79;438194;1259;139484;-71
2024/01/24 16:24:50;;;;;;;8.30;3.70;;;;;;;5.98;100.00;98600.27;434201;1260;139781;-65
2024/01/24 16:34:57;;;;;;;6.70;2.40;;;;;;;5.97;100.00;98602.42;432413;1258;139341;-58
2024/01/24 16:45:03;;;;;;;5.90;2.80;;;;;;;5.89;100.00;98605.17;432868;1261;142382;-57
2024/01/24 16:55:11;;;;;;;8.50;3.20;;;;;;;5.80;100.00;98611.41;437865;1254;139779;-60
2024/01/24 17:05:17;;;;;;;4.50;2.40;;;;;;;5.95;100.00;98624.44;434760;1260;139962;-59
2024/01/24 17:15:23;;;;;;;4.80;1.70;;;;;;;6.09;100.00;98629.50;433625;1260;139581;-59
2024/01/24 17:25:29;;;;;;;5.90;2.70;;;;;;;6.20;100.00;98630.58;432604;1256;140142;-60
2024/01/24 17:35:35;;;;;;;8.10;3.10;;;;;;;6.27;100.00;98633.27;432796;1260;139450;-60
2024/01/24 17:45:43;;;;;;;6.80;3.20;;;;;;;6.29;100.00;98636.48;432853;1261;140444;-59
2024/01/24 17:55:51;;;;;;;10.40;3.90;;;;;;;6.27;100.00;98627.54;432947;1261;139559;-58
2024/01/24 18:05:58;;;;;;;5.70;2.30;;;;;;;6.27;100.00;98623.18;432838;1262;142749;-61
2024/01/24 18:16:05;;;;;;;9.10;4.70;;;;;;;6.30;100.00;98630.67;433096;1260;141397;-60
2024/01/24 18:26:12;;;;;;;11.70;3.20;;;;;;;6.34;100.00;98624.54;433593;1261;140740;-62
2024/01/24 18:36:17;;;;;;;9.70;2.90;;;;;;;6.38;100.00;98619.77;436935;1257;140229;-61
2024/01/24 18:46:25;;;;;;;11.20;3.00;;;;;;;6.36;100.00;98630.48;432510;1262;140722;-61
2024/01/24 18:56:31;;;;;;;10.80;3.40;;;;;;;6.32;100.00;98632.27;432718;1261;139295;-60
2024/01/24 19:06:37;;;;;;;6.50;1.90;;;;;;;6.32;100.00;98628.83;432773;1257;140427;-61
2024/01/24 19:16:43;;;;;;;10.10;3.60;;;;;;;6.30;100.00;98618.89;434151;1258;140285;-63
2024/01/24 19:26:49;;;;;;;8.40;3.10;;;;;;;6.27;100.00;98623.73;432938;1261;139694;-61
2024/01/24 19:36:55;;;;;;;12.20;2.60;;;;;;;6.24;100.00;98629.30;432797;1261;139900;-61
2024/01/24 19:47:01;;;;;;;7.50;2.50;;;;;;;6.23;100.00;98635.80;432693;1261;140060;-60
2024/01/24 19:57:07;;;;;;;7.20;3.00;;;;;;;6.16;100.00;98631.70;432774;1260;139720;-61
2024/01/24 20:07:14;;;;;;;6.80;3.30;;;;;;;6.08;100.00;98650.63;433070;1257;140359;-59
2024/01/24 20:17:22;;;;;;;4.80;2.30;;;;;;;6.02;100.00;98653.05;433619;1258;139766;-61
2024/01/24 20:27:28;;;;;;;6.30;2.80;;;;;;;5.96;100.00;98651.26;433424;1261;139585;-61
2024/01/24 20:37:34;;;;;;;11.20;2.80;;;;;;;5.93;100.00;98651.61;433271;1257;140276;-59
2024/01/24 20:47:39;;;;;;;4.90;3.10;;;;;;;5.93;100.00;98656.67;433001;1260;140332;-60
2024/01/24 20:57:45;;;;;;;5.30;2.20;;;;;;;5.95;100.00;98651.20;433026;1260;141009;-61
2024/01/24 21:07:51;;;;;;;9.90;2.80;;;;;;;5.94;100.00;98656.63;435553;1260;140132;-61
2024/01/24 21:17:57;;;;;;;7.40;2.00;;;;;;;5.92;100.00;98665.28;433464;1260;141324;-62
2024/01/24 21:28:03;;;;;;;11.80;2.80;;;;;;;5.86;100.00;98675.15;434257;1257;139273;-61
2024/01/24 21:38:10;;;;;;;9.20;2.50;;;;;;;5.78;100.00;98675.28;434162;1257;139698;-61
2024/01/24 21:48:16;;;;;;;7.20;2.50;;;;;;;5.66;100.00;98689.70;432849;1261;139659;-61
2024/01/24 21:58:22;;;;;;;4.40;2.40;;;;;;;5.56;100.00;98692.48;432706;1260;139464;-60
2024/01/24 22:08:28;;;;;;;6.30;2.70;;;;;;;5.50;100.00;98673.21;432749;1257;140146;-61
2024/01/24 22:18:34;;;;;;;6.70;2.10;;;;;;;5.41;100.00;98670.42;432617;1260;140515;-60
2024/01/24 22:28:52;;;;;;;4.60;2.50;;;;;;;5.32;100.00;98675.48;432497;1261;140568;-61
2024/01/24 22:38:57;;;;;;;5.80;2.20;;;;;;;5.28;100.00;98665.45;432896;1260;140469;-61
2024/01/24 22:49:03;;;;;;;11.00;4.00;;;;;;;5.26;100.00;98657.93;432523;1258;139207;-61
2024/01/24 22:59:09;;;;;;;4.30;2.10;;;;;;;5.20;100.00;98672.66;433015;1257;140357;-61
2024/01/24 23:09:15;;;;;;;8.40;2.30;;;;;;;5.12;100.00;98673.13;433291;1257;139277;-61
2024/01/24 23:19:21;;;;;;;8.40;2.50;;;;;;;5.07;100.00;98676.85;433118;1258;141813;-61
2024/01/24 23:29:28;;;;;;;11.00;2.20;;;;;;;5.06;100.00;98673.81;434003;1260;139694;-61
2024/01/24 23:39:33;;;;;;;3.30;2.10;;;;;;;5.06;100.00;98672.92;433351;1258;140439;-61
2024/01/24 23:49:39;;;;;;;5.20;2.00;;;;;;;5.07;100.00;98682.61;432535;1257;139186;-61
2024/01/24 23:59:47;;;;;;;6.80;1.80;;;;;;;5.06;100.00;98681.77;434159;1257;140425;-60
